createdAt,value
2023-04-02T00:01:55.318Z,0.60
2023-04-02T00:04:22.637Z,0.60
2023-04-02T00:07:19.274Z,0.55
2023-04-02T00:09:46.529Z,0.68
2023-04-02T00:12:18.762Z,1.25
2023-04-02T00:14:49.195Z,0.50
2023-04-02T00:17:16.374Z,0.55
2023-04-02T00:19:47.688Z,0.52
2023-04-02T00:22:18.514Z,0.77
2023-04-02T00:24:46.204Z,0.60
2023-04-02T00:27:15.749Z,0.30
2023-04-02T00:29:47.843Z,0.50
2023-04-02T00:32:21.667Z,1.23
2023-04-02T00:34:49.448Z,0.20
2023-04-02T00:37:23.826Z,0.52
2023-04-02T00:39:55.084Z,0.30
2023-04-02T00:42:25.294Z,0.45
2023-04-02T00:44:54.729Z,0.40
2023-04-02T00:49:57.645Z,0.40
2023-04-02T00:52:28.278Z,0.45
2023-04-02T00:55:05.447Z,0.40
2023-04-02T00:57:34.467Z,0.57
2023-04-02T01:00:19.157Z,0.55
2023-04-02T01:03:30.784Z,0.20
2023-04-02T01:06:02.952Z,0.60
2023-04-02T01:08:49.157Z,0.40
2023-04-02T01:11:46.619Z,0.47
2023-04-02T01:14:23.101Z,0.40
2023-04-02T01:17:00.555Z,0.68
2023-04-02T01:19:54.636Z,0.10
2023-04-02T01:22:30.865Z,0.45
2023-04-02T01:24:58.583Z,0.10
2023-04-02T01:27:32.597Z,0.40
2023-04-02T01:30:03.582Z,0.20
2023-04-02T01:32:31.696Z,0.50
2023-04-02T01:34:58.931Z,0.73
2023-04-02T01:37:45.155Z,0.45
2023-04-02T01:40:34.534Z,0.50
2023-04-02T01:43:12.321Z,0.40
2023-04-02T01:45:40.562Z,0.35
2023-04-02T01:48:14.644Z,0.63
2023-04-02T01:50:44.060Z,0.50
2023-04-02T01:55:42.595Z,0.60
2023-04-02T01:58:11.796Z,0.45
2023-04-02T02:00:46.316Z,0.70
2023-04-02T02:03:14.337Z,0.50
2023-04-02T02:05:41.642Z,0.40
2023-04-02T02:08:21.828Z,0.60
2023-04-02T02:10:49.935Z,0.40
2023-04-02T02:13:16.727Z,0.22
2023-04-02T02:15:45.010Z,0.50
2023-04-02T02:18:13.351Z,0.63
2023-04-02T02:20:40.466Z,0.43
2023-04-02T02:23:09.199Z,0.95
2023-04-02T02:25:37.431Z,0.45
2023-04-02T02:28:08.088Z,0.40
2023-04-02T02:30:37.908Z,0.40
2023-04-02T02:33:10.759Z,0.43
2023-04-02T02:35:43.570Z,0.50
2023-04-02T02:38:34.753Z,0.43
2023-04-02T02:41:15.271Z,0.60
2023-04-02T02:43:46.466Z,0.50
2023-04-02T02:46:17.908Z,0.52
2023-04-02T02:48:47.183Z,0.38
2023-04-02T02:51:21.925Z,0.55
2023-04-02T02:53:54.100Z,0.35
2023-04-02T02:56:23.767Z,0.40
2023-04-02T02:58:53.597Z,0.65
2023-04-02T03:01:28.273Z,0.60
2023-04-02T03:03:56.644Z,0.80
2023-04-02T03:06:26.190Z,0.40
2023-04-02T03:09:03.408Z,0.45
2023-04-02T03:11:40.110Z,0.50
2023-04-02T03:14:16.980Z,0.50
2023-04-02T03:16:47.322Z,1.20
2023-04-02T03:19:28.798Z,0.90
2023-04-02T03:22:03.243Z,0.73
2023-04-02T03:24:39.963Z,0.68
2023-04-02T03:27:14.198Z,0.70
2023-04-02T03:29:45.465Z,0.60
2023-04-02T03:32:17.634Z,0.95
2023-04-02T03:34:50.005Z,0.55
2023-04-02T03:37:23.104Z,0.60
2023-04-02T03:39:55.625Z,0.40
2023-04-02T03:42:27.386Z,0.57
2023-04-02T03:45:03.634Z,0.60
2023-04-02T03:47:34.560Z,0.50
2023-04-02T03:50:07.981Z,0.60
2023-04-02T03:52:37.919Z,0.60
2023-04-02T03:55:16.042Z,0.50
2023-04-02T03:57:52.863Z,0.73
2023-04-02T04:00:27.396Z,0.80
2023-04-02T04:03:02.967Z,0.70
2023-04-02T04:05:35.262Z,0.50
2023-04-02T04:08:06.432Z,0.65
2023-04-02T04:10:35.952Z,1.15
2023-04-02T04:13:07.038Z,0.60
2023-04-02T04:15:38.566Z,0.75
2023-04-02T04:18:19.152Z,0.60
2023-04-02T04:20:57.112Z,0.60
2023-04-02T04:23:32.534Z,0.88
2023-04-02T04:26:10.617Z,0.80
2023-04-02T04:28:44.802Z,0.70
2023-04-02T04:31:21.847Z,0.73
2023-04-02T04:33:55.600Z,0.40
2023-04-02T04:36:32.662Z,0.60
2023-04-02T04:39:09.585Z,0.40
2023-04-02T04:41:39.568Z,0.50
2023-04-02T04:44:12.878Z,0.50
2023-04-02T04:46:45.307Z,0.57
2023-04-02T04:49:17.620Z,0.68
2023-04-02T04:51:52.209Z,0.68
2023-04-02T04:54:20.318Z,0.40
2023-04-02T04:56:55.518Z,0.45
2023-04-02T04:59:27.395Z,0.70
2023-04-02T05:02:01.782Z,0.20
2023-04-02T05:04:34.665Z,0.40
2023-04-02T05:07:08.442Z,0.30
2023-04-02T05:09:38.925Z,0.45
2023-04-02T05:12:16.296Z,0.40
2023-04-02T05:14:51.175Z,0.90
2023-04-02T05:17:23.706Z,0.77
2023-04-02T05:19:57.127Z,0.70
2023-04-02T05:22:37.487Z,0.52
2023-04-02T05:25:18.907Z,1.00
2023-04-02T05:27:52.697Z,1.27
2023-04-02T05:30:49.579Z,0.50
2023-04-02T05:33:24.885Z,0.75
2023-04-02T05:36:05.744Z,0.60
2023-04-02T05:38:46.343Z,0.50
2023-04-02T05:41:22.773Z,0.57
2023-04-02T05:43:56.919Z,0.82
2023-04-02T05:46:28.075Z,0.57
2023-04-02T05:48:58.976Z,0.70
2023-04-02T05:51:31.303Z,0.13
2023-04-02T05:54:03.938Z,0.65
2023-04-02T05:56:36.666Z,0.55
2023-04-02T05:59:08.495Z,0.57
2023-04-02T06:01:41.605Z,0.60
2023-04-02T06:04:21.424Z,0.85
2023-04-02T06:06:57.630Z,0.50
2023-04-02T06:09:34.950Z,0.35
2023-04-02T06:12:15.646Z,0.90
2023-04-02T06:14:43.611Z,0.75
2023-04-02T06:21:29.568Z,0.60
2023-04-02T06:24:01.551Z,0.75
2023-04-02T06:26:35.208Z,0.73
2023-04-02T06:29:09.142Z,0.60
2023-04-02T06:31:41.055Z,0.55
2023-04-02T06:34:16.232Z,0.40
2023-04-02T06:36:51.604Z,0.57
2023-04-02T06:39:22.812Z,0.50
2023-04-02T06:41:56.576Z,0.55
2023-04-02T06:44:35.076Z,0.65
2023-04-02T06:47:33.961Z,0.85
2023-04-02T06:50:07.466Z,0.50
2023-04-02T06:52:38.732Z,0.50
2023-04-02T06:55:28.233Z,0.85
2023-04-02T06:57:57.183Z,0.60
2023-04-02T07:00:28.150Z,0.50
2023-04-02T07:02:56.458Z,0.60
2023-04-02T07:05:23.553Z,0.50
2023-04-02T07:07:50.455Z,0.20
2023-04-02T07:10:19.916Z,0.60
2023-04-02T07:12:48.539Z,0.70
2023-04-02T07:15:19.108Z,0.60
2023-04-02T07:17:46.705Z,0.70
2023-04-02T07:20:27.447Z,0.77
2023-04-02T07:22:55.872Z,0.40
2023-04-02T07:25:23.314Z,0.50
2023-04-02T07:27:51.353Z,0.57
2023-04-02T07:30:19.827Z,0.50
2023-04-02T07:32:46.835Z,0.20
2023-04-02T07:35:13.882Z,0.50
2023-04-02T07:37:41.152Z,0.73
2023-04-02T07:40:17.391Z,0.55
2023-04-02T07:42:44.499Z,0.50
2023-04-02T07:45:11.987Z,0.77
2023-04-02T07:47:40.725Z,0.93
2023-04-02T07:50:08.325Z,0.40
2023-04-02T07:52:40.547Z,0.68
2023-04-02T07:55:08.822Z,0.50
2023-04-02T07:57:39.104Z,0.57
2023-04-02T08:00:07.929Z,1.20
2023-04-02T08:02:41.037Z,0.50
2023-04-02T08:05:09.089Z,0.25
2023-04-02T08:07:36.299Z,0.45
2023-04-02T08:10:04.864Z,0.60
2023-04-02T08:12:31.852Z,0.50
2023-04-02T08:14:58.587Z,0.60
2023-04-02T08:17:26.479Z,0.85
2023-04-02T08:19:56.020Z,0.55
2023-04-02T08:22:22.837Z,0.60
2023-04-02T08:24:49.479Z,0.20
2023-04-02T08:27:16.459Z,0.68
2023-04-02T08:29:43.067Z,0.70
2023-04-02T08:32:12.349Z,0.50
2023-04-02T08:34:39.000Z,0.75
2023-04-02T08:37:07.841Z,0.65
2023-04-02T08:39:35.193Z,0.50
2023-04-02T08:42:07.191Z,1.30
2023-04-02T08:44:45.497Z,0.70
2023-04-02T08:47:13.520Z,0.85
2023-04-02T08:49:44.697Z,0.15
2023-04-02T08:52:22.108Z,0.45
2023-04-02T08:54:49.788Z,0.55
2023-04-02T08:57:27.672Z,0.30
2023-04-02T09:00:01.638Z,0.20
2023-04-02T09:02:35.842Z,0.10
2023-04-02T09:05:06.519Z,0.50
2023-04-02T09:07:35.112Z,0.60
2023-04-02T09:10:02.272Z,0.73
2023-04-02T09:12:31.054Z,0.50
2023-04-02T09:15:14.973Z,0.80
2023-04-02T09:17:53.116Z,0.50
2023-04-02T09:20:23.150Z,0.35
2023-04-02T09:25:21.525Z,0.68
2023-04-02T09:27:50.179Z,0.22
2023-04-02T09:30:30.522Z,0.47
2023-04-02T09:32:58.691Z,0.60
2023-04-02T09:35:27.739Z,0.20
2023-04-02T09:38:19.469Z,0.60
2023-04-02T09:40:50.695Z,0.70
2023-04-02T09:43:20.090Z,0.60
2023-04-02T09:48:26.203Z,0.82
2023-04-02T09:51:05.430Z,0.90
2023-04-02T09:53:36.078Z,0.93
2023-04-02T09:56:11.800Z,0.77
2023-04-02T10:01:08.454Z,0.50
2023-04-02T10:03:35.347Z,0.73
2023-04-02T10:06:08.200Z,0.52
2023-04-02T10:08:40.071Z,0.40
2023-04-02T10:11:10.942Z,0.50
2023-04-02T10:13:46.296Z,0.60
2023-04-02T10:16:17.745Z,0.60
2023-04-02T10:18:48.695Z,0.30
2023-04-02T10:21:18.969Z,0.70
2023-04-02T10:23:47.094Z,0.93
2023-04-02T10:26:37.454Z,0.10
2023-04-02T10:29:31.742Z,0.32
2023-04-02T10:32:05.170Z,0.52
2023-04-02T10:34:39.426Z,0.10
2023-04-02T10:37:20.887Z,0.68
2023-04-02T10:39:55.284Z,0.57
2023-04-02T10:42:26.653Z,0.17
2023-04-02T10:44:59.514Z,0.47
2023-04-02T10:47:38.182Z,0.20
2023-04-02T10:50:26.351Z,0.60
2023-04-02T10:53:00.459Z,0.10
2023-04-02T10:55:33.888Z,0.40
2023-04-02T10:58:08.058Z,0.50
2023-04-02T11:00:39.420Z,0.70
2023-04-02T11:03:13.255Z,0.40
2023-04-02T11:05:44.507Z,0.70
2023-04-02T11:08:18.327Z,0.80
2023-04-02T11:10:49.454Z,0.70
2023-04-02T11:13:23.169Z,0.50
2023-04-02T11:15:50.823Z,0.30
2023-04-02T11:18:27.586Z,0.60
2023-04-02T11:21:02.645Z,0.40
2023-04-02T11:23:32.658Z,0.28
2023-04-02T11:26:38.185Z,0.50
2023-04-02T11:29:12.183Z,0.32
2023-04-02T11:31:39.369Z,0.10
2023-04-02T11:34:06.149Z,0.70
2023-04-02T11:36:59.365Z,0.65
2023-04-02T11:39:46.449Z,0.52
2023-04-02T11:42:25.470Z,0.60
2023-04-02T11:44:52.324Z,0.70
2023-04-02T11:47:21.471Z,0.65
2023-04-02T11:50:27.595Z,0.88
2023-04-02T11:52:54.963Z,0.20
2023-04-02T11:58:38.080Z,0.10
2023-04-02T12:01:45.120Z,0.22
2023-04-02T12:04:50.326Z,0.20
2023-04-02T12:07:36.857Z,0.70
2023-04-02T12:10:06.966Z,0.20
2023-04-02T12:12:40.840Z,0.50
2023-04-02T12:15:42.154Z,0.57
2023-04-02T12:18:15.687Z,0.20
2023-04-02T12:20:47.720Z,0.40
2023-04-02T12:23:20.039Z,0.57
2023-04-02T12:25:55.224Z,0.75
2023-04-02T12:28:23.161Z,0.20
2023-04-02T12:31:02.151Z,0.50
2023-04-02T12:33:33.656Z,1.00
2023-04-02T12:36:02.567Z,0.68
2023-04-02T12:38:30.959Z,0.88
2023-04-02T12:40:59.519Z,0.20
2023-04-02T12:43:28.010Z,0.85
2023-04-02T12:45:59.071Z,1.10
2023-04-02T12:48:26.994Z,0.63
2023-04-02T12:50:54.702Z,0.80
2023-04-02T12:53:25.361Z,0.60
2023-04-02T12:55:53.571Z,0.52
2023-04-02T12:58:29.642Z,0.98
2023-04-02T13:01:12.250Z,0.60
2023-04-02T13:03:38.940Z,0.50
2023-04-02T13:06:21.960Z,0.68
2023-04-02T13:08:49.111Z,0.40
2023-04-02T13:11:16.256Z,0.70
2023-04-02T13:13:45.000Z,0.43
2023-04-02T13:16:34.571Z,0.65
2023-04-02T13:19:21.844Z,0.40
2023-04-02T13:21:48.562Z,0.60
2023-04-02T13:24:20.013Z,0.30
2023-04-02T13:26:49.865Z,0.50
2023-04-02T13:29:23.792Z,0.30
2023-04-02T13:31:52.948Z,0.20
2023-04-02T13:34:20.682Z,0.30
2023-04-02T13:36:48.027Z,0.80
2023-04-02T13:39:15.241Z,0.65
2023-04-02T13:41:44.272Z,0.68
2023-04-02T13:44:23.695Z,0.60
2023-04-02T13:46:52.989Z,0.20
2023-04-02T13:51:49.502Z,0.68
2023-04-02T13:54:22.057Z,0.63
2023-04-02T13:56:48.856Z,0.40
2023-04-02T13:59:16.160Z,0.10
2023-04-02T14:01:46.138Z,1.00
2023-04-02T14:04:31.222Z,1.10
2023-04-02T14:07:29.312Z,0.88
2023-04-02T14:10:04.963Z,0.40
2023-04-02T14:15:17.884Z,0.20
2023-04-02T14:17:55.333Z,0.80
2023-04-02T14:20:36.425Z,0.50
2023-04-02T14:23:18.605Z,0.20
2023-04-02T14:28:27.939Z,0.20
2023-04-02T14:31:03.575Z,0.10
2023-04-02T14:36:13.334Z,0.73
2023-04-02T14:38:50.810Z,0.68
2023-04-02T14:41:22.752Z,0.20
2023-04-02T14:43:54.408Z,0.95
2023-04-02T14:46:25.447Z,0.47
2023-04-02T14:48:56.658Z,0.20
2023-04-02T14:51:30.750Z,0.15
2023-04-02T14:54:07.190Z,0.50
2023-04-02T14:56:41.522Z,0.20
2023-04-02T14:59:23.472Z,0.75
2023-04-02T15:01:57.185Z,0.70
2023-04-02T15:04:30.525Z,0.40
2023-04-02T15:07:04.934Z,0.20
2023-04-02T15:09:35.585Z,0.35
2023-04-02T15:12:07.372Z,0.20
2023-04-02T15:14:38.838Z,0.50
2023-04-02T15:17:07.216Z,0.43
2023-04-02T15:19:33.968Z,0.20
2023-04-02T15:22:13.493Z,0.68
2023-04-02T15:24:47.891Z,0.20
2023-04-02T15:27:39.927Z,0.20
2023-04-02T15:30:13.226Z,0.68
2023-04-02T15:32:41.482Z,0.80
2023-04-02T15:35:31.735Z,0.30
2023-04-02T15:38:11.675Z,0.30
2023-04-02T15:40:51.928Z,0.40
2023-04-02T15:43:24.031Z,1.10
2023-04-02T15:49:02.503Z,0.40
2023-04-02T15:51:39.427Z,0.73
2023-04-02T15:54:23.326Z,0.60
2023-04-02T15:56:57.674Z,1.52
2023-04-02T15:59:51.911Z,1.00
2023-04-02T16:02:39.518Z,0.63
2023-04-02T16:05:15.144Z,1.00
2023-04-02T16:08:02.339Z,0.75
2023-04-02T16:10:42.041Z,0.55
2023-04-02T16:13:15.491Z,0.60
2023-04-02T16:15:46.377Z,0.47
2023-04-02T16:18:21.197Z,0.60
2023-04-02T16:20:51.167Z,0.70
2023-04-02T16:23:22.189Z,0.80
2023-04-02T16:25:59.261Z,0.43
2023-04-02T16:28:33.420Z,0.77
2023-04-02T16:31:09.527Z,0.47
2023-04-02T16:33:52.108Z,0.80
2023-04-02T16:36:30.927Z,0.70
2023-04-02T16:39:03.609Z,0.80
2023-04-02T16:41:46.857Z,0.40
2023-04-02T16:44:29.449Z,0.93
2023-04-02T16:47:05.588Z,0.90
2023-04-02T16:49:45.479Z,0.40
2023-04-02T16:52:29.987Z,0.95
2023-04-02T17:00:55.177Z,1.52
2023-04-02T17:03:55.656Z,1.15
2023-04-02T17:12:21.988Z,0.90
2023-04-02T17:37:23.580Z,0.80
2023-04-02T17:39:59.935Z,0.25
2023-04-02T17:42:40.640Z,0.40
2023-04-02T17:45:14.951Z,0.73
2023-04-02T17:47:50.018Z,0.70
2023-04-02T17:51:02.970Z,1.00
2023-04-02T17:53:53.717Z,0.70
2023-04-02T17:56:38.274Z,0.77
2023-04-02T17:59:30.551Z,0.75
2023-04-02T18:02:07.358Z,0.95
2023-04-02T18:04:41.759Z,0.63
2023-04-02T18:07:29.321Z,1.23
2023-04-02T18:10:29.419Z,0.85
2023-04-02T18:13:06.324Z,1.50
2023-04-02T18:15:50.274Z,1.20
2023-04-02T18:18:31.130Z,0.77
2023-04-02T18:21:10.192Z,1.63
2023-04-02T18:23:48.877Z,1.60
2023-04-02T18:26:28.668Z,1.50
2023-04-02T18:29:08.288Z,0.70
2023-04-02T18:31:47.692Z,1.08
2023-04-02T18:34:51.473Z,1.25
2023-04-02T18:37:27.768Z,1.25
2023-04-02T18:40:19.728Z,0.52
2023-04-02T18:43:00.534Z,0.85
2023-04-02T18:45:41.195Z,0.90
2023-04-02T18:48:22.745Z,0.80
2023-04-02T18:50:50.110Z,0.80
2023-04-02T18:53:19.219Z,1.13
2023-04-02T18:55:50.543Z,2.10
2023-04-02T18:58:24.749Z,0.82
2023-04-02T19:00:54.324Z,1.08
2023-04-02T19:03:28.118Z,1.00
2023-04-02T19:06:04.366Z,1.30
2023-04-02T19:08:34.433Z,1.20
2023-04-02T19:11:07.781Z,1.17
2023-04-02T19:13:34.833Z,1.35
2023-04-02T19:16:45.167Z,1.35
2023-04-02T19:19:17.907Z,1.73
2023-04-02T19:22:01.658Z,1.85
2023-04-02T19:24:41.619Z,1.30
2023-04-02T19:27:17.893Z,1.27
2023-04-02T19:29:57.842Z,1.30
2023-04-02T19:32:34.944Z,1.40
2023-04-02T19:35:11.734Z,1.95
2023-04-02T19:37:41.366Z,1.83
2023-04-02T19:40:21.207Z,1.48
2023-04-02T19:42:49.290Z,1.75
2023-04-02T19:45:27.419Z,1.65
2023-04-02T19:48:08.898Z,1.40
2023-04-02T19:53:20.570Z,2.15
2023-04-02T19:55:48.152Z,2.42
2023-04-02T19:58:26.271Z,1.90
2023-04-02T20:00:53.073Z,1.95
2023-04-02T20:03:27.595Z,1.80
2023-04-02T20:05:54.839Z,2.53
2023-04-02T20:08:23.169Z,1.70
2023-04-02T20:10:52.216Z,1.95
2023-04-02T20:13:19.573Z,2.50
2023-04-02T20:15:47.333Z,2.17
2023-04-02T20:18:16.765Z,2.72
2023-04-02T20:23:17.533Z,3.95
2023-04-02T20:25:45.549Z,3.22
2023-04-02T20:28:14.575Z,3.05
2023-04-02T20:30:42.271Z,3.10
2023-04-02T20:33:15.360Z,2.05
2023-04-02T20:35:42.203Z,2.90
2023-04-02T20:38:18.968Z,2.70
2023-04-02T20:40:52.340Z,2.72
2023-04-02T20:43:19.930Z,3.05
2023-04-02T20:45:56.481Z,2.33
2023-04-02T20:48:23.441Z,2.28
2023-04-02T20:50:51.266Z,1.42
2023-04-02T20:53:20.093Z,2.25
2023-04-02T20:55:47.361Z,2.50
2023-04-02T20:58:20.491Z,2.67
2023-04-02T21:00:48.357Z,2.53
2023-04-02T21:03:23.793Z,3.15
2023-04-02T21:05:50.661Z,2.53
2023-04-02T21:08:21.159Z,2.95
2023-04-02T21:10:47.789Z,3.10
2023-04-02T21:13:14.592Z,2.25
2023-04-02T21:15:44.242Z,1.95
2023-04-02T21:18:11.093Z,2.15
2023-04-02T21:20:37.957Z,2.60
2023-04-02T21:23:04.740Z,2.58
2023-04-02T21:25:35.174Z,2.65
2023-04-02T21:28:02.085Z,2.95
2023-04-02T21:30:28.960Z,3.25
2023-04-02T21:32:55.958Z,2.42
2023-04-02T21:35:22.742Z,2.97
2023-04-02T21:37:49.418Z,3.15
2023-04-02T21:40:19.263Z,3.35
2023-04-02T21:42:47.586Z,3.58
2023-04-02T21:45:14.543Z,3.17
2023-04-02T21:47:41.367Z,3.35
2023-04-02T21:50:09.443Z,3.55
2023-04-02T21:52:36.194Z,3.30
2023-04-02T21:55:02.988Z,3.42
2023-04-02T21:57:31.553Z,3.05
2023-04-02T21:59:59.815Z,3.00
2023-04-02T22:02:26.604Z,2.95
2023-04-02T22:04:53.835Z,2.53
2023-04-02T22:07:22.367Z,2.83
2023-04-02T22:09:49.045Z,3.13
2023-04-02T22:12:16.401Z,2.90
2023-04-02T22:14:43.093Z,3.28
2023-04-02T22:17:11.391Z,3.20
2023-04-02T22:19:38.228Z,3.20
2023-04-02T22:22:04.992Z,3.53
2023-04-02T22:24:32.476Z,3.22
2023-04-02T22:26:59.224Z,3.20
2023-04-02T22:29:26.115Z,3.47
2023-04-02T22:31:53.260Z,2.88
2023-04-02T22:34:21.865Z,2.92
2023-04-02T22:36:48.568Z,2.55
2023-04-02T22:39:17.041Z,2.63
2023-04-02T22:41:43.875Z,3.28
2023-04-02T22:44:14.583Z,2.72
2023-04-02T22:46:41.776Z,3.03
2023-04-02T22:49:08.675Z,2.70
2023-04-02T22:51:37.028Z,2.60
2023-04-02T22:54:04.035Z,3.75
2023-04-02T22:56:35.402Z,2.58
2023-04-02T22:59:02.283Z,3.00
2023-04-02T23:01:32.061Z,3.33
2023-04-02T23:03:59.206Z,2.67
2023-04-02T23:06:27.048Z,3.35
2023-04-02T23:08:56.213Z,2.95
2023-04-02T23:11:28.636Z,2.40
2023-04-02T23:13:57.872Z,2.08
2023-04-02T23:16:27.485Z,3.00
2023-04-02T23:18:55.426Z,3.35
2023-04-02T23:21:22.686Z,2.65
2023-04-02T23:23:50.501Z,2.80
2023-04-02T23:26:32.747Z,2.67
2023-04-02T23:28:59.944Z,2.80
2023-04-02T23:31:28.530Z,2.03
2023-04-02T23:33:57.182Z,2.50
2023-04-02T23:36:26.061Z,3.42
2023-04-02T23:39:02.697Z,3.38
2023-04-02T23:41:31.377Z,2.80
2023-04-02T23:43:59.624Z,3.10
2023-04-02T23:46:26.425Z,2.78
2023-04-02T23:48:57.478Z,3.08
2023-04-02T23:51:26.754Z,1.65
2023-04-02T23:53:56.099Z,3.13
2023-04-02T23:56:23.066Z,2.63
2023-04-02T23:58:51.856Z,3.50
